sensor_id;sensor_type;location;lat;lon;timestamp;P1;durP1;ratioP1;P2;durP2;ratioP2
5845;SDS011;2949;50.778;7.094;2023-04-03T00:02:15;6.83;;;1.70;;
5845;SDS011;2949;50.778;7.094;2023-04-03T00:04:40;2.80;;;1.77;;
5845;SDS011;2949;50.778;7.094;2023-04-03T00:07:06;4.53;;;1.77;;
5845;SDS011;2949;50.778;7.094;2023-04-03T00:09:32;4.70;;;1.60;;
5845;SDS011;2949;50.778;7.094;2023-04-03T00:11:57;1.73;;;1.17;;
5845;SDS011;2949;50.778;7.094;2023-04-03T00:14:23;2.20;;;1.87;;
5845;SDS011;2949;50.778;7.094;2023-04-03T00:16:48;3.03;;;2.00;;
5845;SDS011;2949;50.778;7.094;2023-04-03T00:19:14;1.90;;;1.67;;
5845;SDS011;2949;50.778;7.094;2023-04-03T00:21:39;3.87;;;1.87;;
5845;SDS011;2949;50.778;7.094;2023-04-03T00:24:05;2.23;;;1.70;;
5845;SDS011;2949;50.778;7.094;2023-04-03T00:26:31;5.70;;;1.80;;
5845;SDS011;2949;50.778;7.094;2023-04-03T00:28:56;2.40;;;1.70;;
5845;SDS011;2949;50.778;7.094;2023-04-03T00:31:22;3.97;;;1.80;;
5845;SDS011;2949;50.778;7.094;2023-04-03T00:33:47;3.60;;;1.47;;
5845;SDS011;2949;50.778;7.094;2023-04-03T00:36:13;1.60;;;1.50;;
5845;SDS011;2949;50.778;7.094;2023-04-03T00:38:38;6.70;;;1.30;;
5845;SDS011;2949;50.778;7.094;2023-04-03T00:41:05;3.63;;;1.60;;
5845;SDS011;2949;50.778;7.094;2023-04-03T00:43:31;2.40;;;1.67;;
5845;SDS011;2949;50.778;7.094;2023-04-03T00:45:57;3.87;;;1.73;;
5845;SDS011;2949;50.778;7.094;2023-04-03T00:51:00;2.20;;;1.50;;
5845;SDS011;2949;50.778;7.094;2023-04-03T00:53:29;6.33;;;1.97;;
5845;SDS011;2949;50.778;7.094;2023-04-03T00:55:59;1.97;;;1.37;;
5845;SDS011;2949;50.778;7.094;2023-04-03T00:58:27;1.57;;;1.10;;
5845;SDS011;2949;50.778;7.094;2023-04-03T01:00:59;5.47;;;1.60;;
5845;SDS011;2949;50.778;7.094;2023-04-03T01:03:28;1.77;;;1.57;;
5845;SDS011;2949;50.778;7.094;2023-04-03T01:05:56;2.13;;;1.37;;
5845;SDS011;2949;50.778;7.094;2023-04-03T01:08:22;2.80;;;2.20;;
5845;SDS011;2949;50.778;7.094;2023-04-03T01:10:47;2.30;;;1.00;;
5845;SDS011;2949;50.778;7.094;2023-04-03T01:13:24;1.70;;;1.30;;
5845;SDS011;2949;50.778;7.094;2023-04-03T01:15:52;3.83;;;1.40;;
5845;SDS011;2949;50.778;7.094;2023-04-03T01:18:19;4.67;;;1.87;;
5845;SDS011;2949;50.778;7.094;2023-04-03T01:20:50;2.23;;;1.53;;
5845;SDS011;2949;50.778;7.094;2023-04-03T01:23:49;1.77;;;1.63;;
5845;SDS011;2949;50.778;7.094;2023-04-03T01:26:35;1.73;;;1.60;;
5845;SDS011;2949;50.778;7.094;2023-04-03T01:29:01;4.40;;;1.80;;
5845;SDS011;2949;50.778;7.094;2023-04-03T01:34:21;4.20;;;1.70;;
5845;SDS011;2949;50.778;7.094;2023-04-03T01:36:48;5.10;;;1.43;;
5845;SDS011;2949;50.778;7.094;2023-04-03T01:39:13;3.17;;;1.40;;
5845;SDS011;2949;50.778;7.094;2023-04-03T01:41:39;3.67;;;2.00;;
5845;SDS011;2949;50.778;7.094;2023-04-03T01:44:05;6.57;;;2.00;;
5845;SDS011;2949;50.778;7.094;2023-04-03T01:46:31;4.80;;;1.60;;
5845;SDS011;2949;50.778;7.094;2023-04-03T01:48:56;2.40;;;1.50;;
5845;SDS011;2949;50.778;7.094;2023-04-03T01:51:22;2.90;;;1.73;;
5845;SDS011;2949;50.778;7.094;2023-04-03T01:53:48;1.90;;;1.73;;
5845;SDS011;2949;50.778;7.094;2023-04-03T01:56:13;4.30;;;2.00;;
5845;SDS011;2949;50.778;7.094;2023-04-03T01:58:39;4.83;;;1.80;;
5845;SDS011;2949;50.778;7.094;2023-04-03T02:01:04;6.60;;;1.90;;
5845;SDS011;2949;50.778;7.094;2023-04-03T02:03:31;4.47;;;1.53;;
5845;SDS011;2949;50.778;7.094;2023-04-03T02:05:56;3.80;;;1.57;;
5845;SDS011;2949;50.778;7.094;2023-04-03T02:08:22;2.10;;;1.67;;
5845;SDS011;2949;50.778;7.094;2023-04-03T02:10:48;3.23;;;1.43;;
5845;SDS011;2949;50.778;7.094;2023-04-03T02:13:15;2.30;;;1.30;;
5845;SDS011;2949;50.778;7.094;2023-04-03T02:15:41;4.10;;;1.70;;
5845;SDS011;2949;50.778;7.094;2023-04-03T02:18:06;2.67;;;1.30;;
5845;SDS011;2949;50.778;7.094;2023-04-03T02:20:32;3.87;;;1.90;;
5845;SDS011;2949;50.778;7.094;2023-04-03T02:22:58;1.30;;;1.20;;
5845;SDS011;2949;50.778;7.094;2023-04-03T02:25:24;1.40;;;1.40;;
5845;SDS011;2949;50.778;7.094;2023-04-03T02:27:49;3.33;;;1.70;;
5845;SDS011;2949;50.778;7.094;2023-04-03T02:30:15;2.83;;;1.50;;
5845;SDS011;2949;50.778;7.094;2023-04-03T02:32:41;1.70;;;1.60;;
5845;SDS011;2949;50.778;7.094;2023-04-03T02:35:08;12.10;;;1.90;;
5845;SDS011;2949;50.778;7.094;2023-04-03T02:37:34;4.43;;;1.93;;
5845;SDS011;2949;50.778;7.094;2023-04-03T02:39:59;3.27;;;2.17;;
5845;SDS011;2949;50.778;7.094;2023-04-03T02:42:25;4.37;;;1.80;;
5845;SDS011;2949;50.778;7.094;2023-04-03T02:44:51;2.07;;;1.60;;
5845;SDS011;2949;50.778;7.094;2023-04-03T02:47:16;1.53;;;1.30;;
5845;SDS011;2949;50.778;7.094;2023-04-03T02:49:42;4.13;;;1.60;;
5845;SDS011;2949;50.778;7.094;2023-04-03T02:52:10;8.53;;;1.90;;
5845;SDS011;2949;50.778;7.094;2023-04-03T02:54:35;2.43;;;2.00;;
5845;SDS011;2949;50.778;7.094;2023-04-03T02:57:01;3.17;;;1.80;;
5845;SDS011;2949;50.778;7.094;2023-04-03T02:59:26;7.97;;;1.83;;
5845;SDS011;2949;50.778;7.094;2023-04-03T03:01:52;7.17;;;1.50;;
5845;SDS011;2949;50.778;7.094;2023-04-03T03:04:17;1.67;;;1.50;;
5845;SDS011;2949;50.778;7.094;2023-04-03T03:06:43;2.87;;;1.67;;
5845;SDS011;2949;50.778;7.094;2023-04-03T03:09:09;4.83;;;1.43;;
5845;SDS011;2949;50.778;7.094;2023-04-03T03:11:34;4.97;;;1.50;;
5845;SDS011;2949;50.778;7.094;2023-04-03T03:14:00;4.13;;;1.50;;
5845;SDS011;2949;50.778;7.094;2023-04-03T03:16:25;2.10;;;1.50;;
5845;SDS011;2949;50.778;7.094;2023-04-03T03:18:51;5.37;;;2.00;;
5845;SDS011;2949;50.778;7.094;2023-04-03T03:21:16;2.30;;;1.80;;
5845;SDS011;2949;50.778;7.094;2023-04-03T03:23:42;4.30;;;1.53;;
5845;SDS011;2949;50.778;7.094;2023-04-03T03:26:09;4.40;;;1.20;;
5845;SDS011;2949;50.778;7.094;2023-04-03T03:28:36;3.60;;;1.57;;
5845;SDS011;2949;50.778;7.094;2023-04-03T03:31:03;1.40;;;1.30;;
5845;SDS011;2949;50.778;7.094;2023-04-03T03:33:29;2.27;;;1.80;;
5845;SDS011;2949;50.778;7.094;2023-04-03T03:35:55;3.17;;;1.67;;
5845;SDS011;2949;50.778;7.094;2023-04-03T03:38:21;2.60;;;1.70;;
5845;SDS011;2949;50.778;7.094;2023-04-03T03:40:47;8.57;;;2.00;;
5845;SDS011;2949;50.778;7.094;2023-04-03T03:43:14;2.80;;;1.40;;
5845;SDS011;2949;50.778;7.094;2023-04-03T03:45:40;4.27;;;2.07;;
5845;SDS011;2949;50.778;7.094;2023-04-03T03:48:05;5.50;;;2.60;;
5845;SDS011;2949;50.778;7.094;2023-04-03T03:50:31;4.57;;;1.73;;
5845;SDS011;2949;50.778;7.094;2023-04-03T03:52:57;7.03;;;2.10;;
5845;SDS011;2949;50.778;7.094;2023-04-03T03:55:22;2.77;;;1.80;;
5845;SDS011;2949;50.778;7.094;2023-04-03T03:57:48;5.57;;;1.97;;
5845;SDS011;2949;50.778;7.094;2023-04-03T04:00:14;2.27;;;1.63;;
5845;SDS011;2949;50.778;7.094;2023-04-03T04:02:39;1.83;;;1.50;;
5845;SDS011;2949;50.778;7.094;2023-04-03T04:05:05;6.30;;;1.80;;
5845;SDS011;2949;50.778;7.094;2023-04-03T04:07:31;1.90;;;1.20;;
5845;SDS011;2949;50.778;7.094;2023-04-03T04:09:56;2.47;;;1.63;;
5845;SDS011;2949;50.778;7.094;2023-04-03T04:12:22;3.43;;;1.93;;
5845;SDS011;2949;50.778;7.094;2023-04-03T04:14:47;5.33;;;1.73;;
5845;SDS011;2949;50.778;7.094;2023-04-03T04:17:13;3.07;;;1.80;;
5845;SDS011;2949;50.778;7.094;2023-04-03T04:19:39;5.60;;;2.00;;
5845;SDS011;2949;50.778;7.094;2023-04-03T04:22:04;7.80;;;1.63;;
5845;SDS011;2949;50.778;7.094;2023-04-03T04:24:30;5.77;;;2.00;;
5845;SDS011;2949;50.778;7.094;2023-04-03T04:26:55;3.80;;;2.33;;
5845;SDS011;2949;50.778;7.094;2023-04-03T04:29:21;4.10;;;2.17;;
5845;SDS011;2949;50.778;7.094;2023-04-03T04:31:46;13.43;;;2.13;;
5845;SDS011;2949;50.778;7.094;2023-04-03T04:34:12;3.00;;;2.00;;
5845;SDS011;2949;50.778;7.094;2023-04-03T04:36:38;3.33;;;2.30;;
5845;SDS011;2949;50.778;7.094;2023-04-03T04:39:03;4.13;;;2.13;;
5845;SDS011;2949;50.778;7.094;2023-04-03T04:41:30;4.17;;;2.27;;
5845;SDS011;2949;50.778;7.094;2023-04-03T04:43:56;3.83;;;1.87;;
5845;SDS011;2949;50.778;7.094;2023-04-03T04:46:21;3.60;;;1.90;;
5845;SDS011;2949;50.778;7.094;2023-04-03T04:48:47;2.20;;;2.10;;
5845;SDS011;2949;50.778;7.094;2023-04-03T04:51:13;4.93;;;2.20;;
5845;SDS011;2949;50.778;7.094;2023-04-03T04:53:39;3.30;;;2.40;;
5845;SDS011;2949;50.778;7.094;2023-04-03T04:56:04;2.37;;;2.17;;
5845;SDS011;2949;50.778;7.094;2023-04-03T04:58:30;5.37;;;2.50;;
5845;SDS011;2949;50.778;7.094;2023-04-03T05:01:00;10.67;;;3.20;;
5845;SDS011;2949;50.778;7.094;2023-04-03T05:03:35;2.73;;;2.40;;
5845;SDS011;2949;50.778;7.094;2023-04-03T05:06:01;4.30;;;3.20;;
5845;SDS011;2949;50.778;7.094;2023-04-03T05:08:27;3.43;;;2.53;;
5845;SDS011;2949;50.778;7.094;2023-04-03T05:10:52;5.53;;;2.63;;
5845;SDS011;2949;50.778;7.094;2023-04-03T05:13:18;7.57;;;2.50;;
5845;SDS011;2949;50.778;7.094;2023-04-03T05:15:44;4.30;;;2.10;;
5845;SDS011;2949;50.778;7.094;2023-04-03T05:18:10;8.00;;;2.60;;
5845;SDS011;2949;50.778;7.094;2023-04-03T05:20:35;7.30;;;2.63;;
5845;SDS011;2949;50.778;7.094;2023-04-03T05:23:01;5.00;;;2.10;;
5845;SDS011;2949;50.778;7.094;2023-04-03T05:25:27;9.53;;;2.70;;
5845;SDS011;2949;50.778;7.094;2023-04-03T05:27:53;4.03;;;2.50;;
5845;SDS011;2949;50.778;7.094;2023-04-03T05:30:18;2.90;;;1.63;;
5845;SDS011;2949;50.778;7.094;2023-04-03T05:32:44;3.63;;;1.80;;
5845;SDS011;2949;50.778;7.094;2023-04-03T05:35:10;7.40;;;1.83;;
5845;SDS011;2949;50.778;7.094;2023-04-03T05:37:36;4.10;;;2.00;;
5845;SDS011;2949;50.778;7.094;2023-04-03T05:40:03;5.17;;;2.27;;
5845;SDS011;2949;50.778;7.094;2023-04-03T05:42:29;9.10;;;1.70;;
5845;SDS011;2949;50.778;7.094;2023-04-03T05:44:55;2.03;;;1.83;;
5845;SDS011;2949;50.778;7.094;2023-04-03T05:47:20;4.90;;;1.80;;
5845;SDS011;2949;50.778;7.094;2023-04-03T05:49:47;1.70;;;1.60;;
5845;SDS011;2949;50.778;7.094;2023-04-03T05:52:26;3.43;;;1.50;;
5845;SDS011;2949;50.778;7.094;2023-04-03T05:54:53;1.90;;;1.37;;
5845;SDS011;2949;50.778;7.094;2023-04-03T05:57:19;4.87;;;1.80;;
5845;SDS011;2949;50.778;7.094;2023-04-03T05:59:45;2.80;;;2.00;;
5845;SDS011;2949;50.778;7.094;2023-04-03T06:02:12;10.13;;;2.30;;
5845;SDS011;2949;50.778;7.094;2023-04-03T06:04:39;0.80;;;0.80;;
5845;SDS011;2949;50.778;7.094;2023-04-03T06:07:05;2.23;;;1.90;;
5845;SDS011;2949;50.778;7.094;2023-04-03T06:09:31;2.10;;;1.70;;
5845;SDS011;2949;50.778;7.094;2023-04-03T06:11:57;2.07;;;1.87;;
5845;SDS011;2949;50.778;7.094;2023-04-03T06:14:24;5.33;;;2.60;;
5845;SDS011;2949;50.778;7.094;2023-04-03T06:16:50;3.83;;;2.60;;
5845;SDS011;2949;50.778;7.094;2023-04-03T06:19:16;3.70;;;1.53;;
5845;SDS011;2949;50.778;7.094;2023-04-03T06:21:42;11.63;;;2.90;;
5845;SDS011;2949;50.778;7.094;2023-04-03T06:24:09;8.33;;;2.07;;
5845;SDS011;2949;50.778;7.094;2023-04-03T06:26:37;3.37;;;1.63;;
5845;SDS011;2949;50.778;7.094;2023-04-03T06:29:02;6.90;;;1.90;;
5845;SDS011;2949;50.778;7.094;2023-04-03T06:31:28;2.20;;;2.00;;
5845;SDS011;2949;50.778;7.094;2023-04-03T06:33:54;4.53;;;2.50;;
5845;SDS011;2949;50.778;7.094;2023-04-03T06:36:21;5.03;;;1.90;;
5845;SDS011;2949;50.778;7.094;2023-04-03T06:38:46;5.30;;;1.97;;
5845;SDS011;2949;50.778;7.094;2023-04-03T06:41:13;3.10;;;1.97;;
5845;SDS011;2949;50.778;7.094;2023-04-03T06:43:38;3.10;;;1.47;;
5845;SDS011;2949;50.778;7.094;2023-04-03T06:46:04;6.40;;;1.90;;
5845;SDS011;2949;50.778;7.094;2023-04-03T06:48:30;4.83;;;1.80;;
5845;SDS011;2949;50.778;7.094;2023-04-03T06:50:55;2.87;;;1.40;;
5845;SDS011;2949;50.778;7.094;2023-04-03T06:53:21;3.50;;;1.37;;
5845;SDS011;2949;50.778;7.094;2023-04-03T06:55:46;1.50;;;0.90;;
5845;SDS011;2949;50.778;7.094;2023-04-03T06:58:12;6.00;;;1.17;;
5845;SDS011;2949;50.778;7.094;2023-04-03T07:00:40;6.53;;;1.10;;
5845;SDS011;2949;50.778;7.094;2023-04-03T07:03:05;2.63;;;0.77;;
5845;SDS011;2949;50.778;7.094;2023-04-03T07:05:31;4.03;;;1.43;;
5845;SDS011;2949;50.778;7.094;2023-04-03T07:07:57;3.17;;;0.80;;
5845;SDS011;2949;50.778;7.094;2023-04-03T07:10:23;1.33;;;0.80;;
5845;SDS011;2949;50.778;7.094;2023-04-03T07:12:48;4.47;;;1.30;;
5845;SDS011;2949;50.778;7.094;2023-04-03T07:15:14;3.30;;;1.20;;
5845;SDS011;2949;50.778;7.094;2023-04-03T07:17:40;3.37;;;1.13;;
5845;SDS011;2949;50.778;7.094;2023-04-03T07:20:05;2.40;;;0.80;;
5845;SDS011;2949;50.778;7.094;2023-04-03T07:22:32;2.37;;;1.13;;
5845;SDS011;2949;50.778;7.094;2023-04-03T07:24:57;3.90;;;0.93;;
5845;SDS011;2949;50.778;7.094;2023-04-03T07:27:24;2.57;;;1.30;;
5845;SDS011;2949;50.778;7.094;2023-04-03T07:29:50;2.20;;;1.40;;
5845;SDS011;2949;50.778;7.094;2023-04-03T07:32:16;1.53;;;1.17;;
5845;SDS011;2949;50.778;7.094;2023-04-03T07:34:42;2.90;;;0.80;;
5845;SDS011;2949;50.778;7.094;2023-04-03T07:37:08;3.80;;;1.30;;
5845;SDS011;2949;50.778;7.094;2023-04-03T07:39:34;2.47;;;1.20;;
5845;SDS011;2949;50.778;7.094;2023-04-03T07:41:59;6.87;;;1.27;;
5845;SDS011;2949;50.778;7.094;2023-04-03T07:44:25;2.10;;;1.03;;
5845;SDS011;2949;50.778;7.094;2023-04-03T07:46:51;1.97;;;1.03;;
5845;SDS011;2949;50.778;7.094;2023-04-03T07:49:17;4.00;;;2.23;;
5845;SDS011;2949;50.778;7.094;2023-04-03T07:51:43;2.83;;;0.97;;
5845;SDS011;2949;50.778;7.094;2023-04-03T07:54:09;3.63;;;1.10;;
5845;SDS011;2949;50.778;7.094;2023-04-03T07:56:35;6.10;;;1.17;;
5845;SDS011;2949;50.778;7.094;2023-04-03T07:59:00;2.60;;;0.97;;
5845;SDS011;2949;50.778;7.094;2023-04-03T08:01:26;7.83;;;1.40;;
5845;SDS011;2949;50.778;7.094;2023-04-03T08:03:51;3.43;;;1.27;;
5845;SDS011;2949;50.778;7.094;2023-04-03T08:06:17;6.00;;;1.20;;
5845;SDS011;2949;50.778;7.094;2023-04-03T08:08:43;1.27;;;0.90;;
5845;SDS011;2949;50.778;7.094;2023-04-03T08:11:09;2.70;;;1.10;;
5845;SDS011;2949;50.778;7.094;2023-04-03T08:13:35;3.77;;;1.67;;
5845;SDS011;2949;50.778;7.094;2023-04-03T08:16:11;2.00;;;0.70;;
5845;SDS011;2949;50.778;7.094;2023-04-03T08:18:38;1.70;;;1.20;;
5845;SDS011;2949;50.778;7.094;2023-04-03T08:21:07;4.13;;;0.90;;
5845;SDS011;2949;50.778;7.094;2023-04-03T08:23:36;11.73;;;1.83;;
5845;SDS011;2949;50.778;7.094;2023-04-03T08:26:07;5.40;;;1.30;;
5845;SDS011;2949;50.778;7.094;2023-04-03T08:28:34;1.57;;;1.10;;
5845;SDS011;2949;50.778;7.094;2023-04-03T08:31:03;1.60;;;1.07;;
5845;SDS011;2949;50.778;7.094;2023-04-03T08:33:31;1.27;;;0.73;;
5845;SDS011;2949;50.778;7.094;2023-04-03T08:35:56;5.07;;;1.50;;
5845;SDS011;2949;50.778;7.094;2023-04-03T08:38:22;3.47;;;1.30;;
5845;SDS011;2949;50.778;7.094;2023-04-03T08:40:58;4.10;;;1.07;;
5845;SDS011;2949;50.778;7.094;2023-04-03T08:46:22;1.70;;;0.87;;
5845;SDS011;2949;50.778;7.094;2023-04-03T08:48:57;6.77;;;1.17;;
5845;SDS011;2949;50.778;7.094;2023-04-03T08:51:24;0.70;;;0.70;;
5845;SDS011;2949;50.778;7.094;2023-04-03T08:56:19;2.87;;;0.77;;
5845;SDS011;2949;50.778;7.094;2023-04-03T08:58:47;3.77;;;1.17;;
5845;SDS011;2949;50.778;7.094;2023-04-03T09:01:33;5.40;;;1.13;;
5845;SDS011;2949;50.778;7.094;2023-04-03T09:04:01;2.30;;;0.70;;
5845;SDS011;2949;50.778;7.094;2023-04-03T09:06:28;1.03;;;0.63;;
5845;SDS011;2949;50.778;7.094;2023-04-03T09:09:14;4.67;;;0.87;;
5845;SDS011;2949;50.778;7.094;2023-04-03T09:14:26;2.70;;;0.80;;
5845;SDS011;2949;50.778;7.094;2023-04-03T09:16:57;1.00;;;0.90;;
5845;SDS011;2949;50.778;7.094;2023-04-03T09:21:57;6.83;;;0.73;;
5845;SDS011;2949;50.778;7.094;2023-04-03T09:24:43;2.73;;;1.00;;
5845;SDS011;2949;50.778;7.094;2023-04-03T09:27:12;4.00;;;1.37;;
5845;SDS011;2949;50.778;7.094;2023-04-03T09:29:43;4.23;;;0.70;;
5845;SDS011;2949;50.778;7.094;2023-04-03T09:37:39;0.70;;;0.63;;
5845;SDS011;2949;50.778;7.094;2023-04-03T09:42:56;2.87;;;0.90;;
5845;SDS011;2949;50.778;7.094;2023-04-03T09:45:42;0.60;;;0.57;;
5845;SDS011;2949;50.778;7.094;2023-04-03T09:48:15;2.33;;;0.70;;
5845;SDS011;2949;50.778;7.094;2023-04-03T09:50:52;2.50;;;0.77;;
5845;SDS011;2949;50.778;7.094;2023-04-03T09:55:57;2.20;;;0.70;;
5845;SDS011;2949;50.778;7.094;2023-04-03T09:58:29;4.20;;;1.50;;
5845;SDS011;2949;50.778;7.094;2023-04-03T10:01:06;3.93;;;0.80;;
5845;SDS011;2949;50.778;7.094;2023-04-03T10:03:45;2.77;;;0.70;;
5845;SDS011;2949;50.778;7.094;2023-04-03T10:06:22;0.87;;;0.60;;
5845;SDS011;2949;50.778;7.094;2023-04-03T10:08:58;0.83;;;0.50;;
5845;SDS011;2949;50.778;7.094;2023-04-03T10:11:26;4.07;;;0.97;;
5845;SDS011;2949;50.778;7.094;2023-04-03T10:13:52;3.37;;;0.80;;
5845;SDS011;2949;50.778;7.094;2023-04-03T10:16:22;3.40;;;0.90;;
5845;SDS011;2949;50.778;7.094;2023-04-03T10:19:22;4.30;;;0.90;;
5845;SDS011;2949;50.778;7.094;2023-04-03T10:22:20;1.90;;;0.70;;
5845;SDS011;2949;50.778;7.094;2023-04-03T10:27:36;3.10;;;0.90;;
5845;SDS011;2949;50.778;7.094;2023-04-03T10:30:38;1.67;;;0.77;;
5845;SDS011;2949;50.778;7.094;2023-04-03T10:41:22;1.47;;;0.90;;
5845;SDS011;2949;50.778;7.094;2023-04-03T10:44:00;2.47;;;0.70;;
5845;SDS011;2949;50.778;7.094;2023-04-03T10:46:43;0.80;;;0.50;;
5845;SDS011;2949;50.778;7.094;2023-04-03T10:52:02;1.23;;;0.80;;
5845;SDS011;2949;50.778;7.094;2023-04-03T10:54:38;0.83;;;0.50;;
5845;SDS011;2949;50.778;7.094;2023-04-03T10:57:08;1.03;;;0.70;;
5845;SDS011;2949;50.778;7.094;2023-04-03T10:59:37;0.50;;;0.50;;
5845;SDS011;2949;50.778;7.094;2023-04-03T11:04:51;1.43;;;0.50;;
5845;SDS011;2949;50.778;7.094;2023-04-03T11:07:29;1.17;;;0.70;;
5845;SDS011;2949;50.778;7.094;2023-04-03T11:10:09;1.43;;;0.70;;
5845;SDS011;2949;50.778;7.094;2023-04-03T11:12:46;3.53;;;0.87;;
5845;SDS011;2949;50.778;7.094;2023-04-03T11:15:17;1.60;;;0.77;;
5845;SDS011;2949;50.778;7.094;2023-04-03T11:17:51;1.30;;;0.40;;
5845;SDS011;2949;50.778;7.094;2023-04-03T11:20:29;1.03;;;0.60;;
5845;SDS011;2949;50.778;7.094;2023-04-03T11:23:02;1.07;;;0.60;;
5845;SDS011;2949;50.778;7.094;2023-04-03T11:25:34;1.67;;;0.70;;
5845;SDS011;2949;50.778;7.094;2023-04-03T11:28:03;0.87;;;0.53;;
5845;SDS011;2949;50.778;7.094;2023-04-03T11:36:10;0.63;;;0.47;;
5845;SDS011;2949;50.778;7.094;2023-04-03T11:38:43;1.47;;;0.53;;
5845;SDS011;2949;50.778;7.094;2023-04-03T11:41:25;1.13;;;0.93;;
5845;SDS011;2949;50.778;7.094;2023-04-03T11:44:06;0.90;;;0.57;;
5845;SDS011;2949;50.778;7.094;2023-04-03T11:46:56;3.70;;;0.80;;
5845;SDS011;2949;50.778;7.094;2023-04-03T12:05:56;0.53;;;0.53;;
5845;SDS011;2949;50.778;7.094;2023-04-03T12:35:27;0.70;;;0.53;;
5845;SDS011;2949;50.778;7.094;2023-04-03T12:44:01;0.80;;;0.53;;
5845;SDS011;2949;50.778;7.094;2023-04-03T12:46:36;1.57;;;0.50;;
5845;SDS011;2949;50.778;7.094;2023-04-03T12:51:55;4.67;;;0.80;;
5845;SDS011;2949;50.778;7.094;2023-04-03T12:54:31;1.07;;;0.40;;
5845;SDS011;2949;50.778;7.094;2023-04-03T12:59:42;1.80;;;0.90;;
5845;SDS011;2949;50.778;7.094;2023-04-03T13:02:15;2.03;;;0.80;;
5845;SDS011;2949;50.778;7.094;2023-04-03T13:04:42;2.47;;;0.90;;
5845;SDS011;2949;50.778;7.094;2023-04-03T13:07:18;2.90;;;1.00;;
5845;SDS011;2949;50.778;7.094;2023-04-03T13:12:50;0.40;;;0.40;;
5845;SDS011;2949;50.778;7.094;2023-04-03T13:15:20;4.80;;;1.30;;
5845;SDS011;2949;50.778;7.094;2023-04-03T13:17:53;2.33;;;0.97;;
5845;SDS011;2949;50.778;7.094;2023-04-03T13:20:24;2.50;;;0.87;;
5845;SDS011;2949;50.778;7.094;2023-04-03T13:25:27;2.10;;;0.77;;
5845;SDS011;2949;50.778;7.094;2023-04-03T13:27:56;1.80;;;0.60;;
5845;SDS011;2949;50.778;7.094;2023-04-03T13:30:25;0.70;;;0.63;;
5845;SDS011;2949;50.778;7.094;2023-04-03T13:32:55;2.00;;;0.80;;
5845;SDS011;2949;50.778;7.094;2023-04-03T13:37:59;0.50;;;0.47;;
5845;SDS011;2949;50.778;7.094;2023-04-03T13:40:30;0.80;;;0.80;;
5845;SDS011;2949;50.778;7.094;2023-04-03T13:43:04;1.37;;;0.70;;
5845;SDS011;2949;50.778;7.094;2023-04-03T13:45:42;2.47;;;1.13;;
5845;SDS011;2949;50.778;7.094;2023-04-03T13:48:34;3.53;;;0.70;;
5845;SDS011;2949;50.778;7.094;2023-04-03T13:51:03;0.77;;;0.77;;
5845;SDS011;2949;50.778;7.094;2023-04-03T13:53:32;4.27;;;0.87;;
5845;SDS011;2949;50.778;7.094;2023-04-03T13:56:00;0.80;;;0.80;;
5845;SDS011;2949;50.778;7.094;2023-04-03T13:58:35;2.27;;;0.83;;
5845;SDS011;2949;50.778;7.094;2023-04-03T14:01:17;2.17;;;0.77;;
5845;SDS011;2949;50.778;7.094;2023-04-03T14:06:24;1.20;;;1.00;;
5845;SDS011;2949;50.778;7.094;2023-04-03T14:08:50;1.27;;;0.70;;
5845;SDS011;2949;50.778;7.094;2023-04-03T14:11:20;1.77;;;0.60;;
5845;SDS011;2949;50.778;7.094;2023-04-03T14:13:49;0.73;;;0.73;;
5845;SDS011;2949;50.778;7.094;2023-04-03T14:16:15;2.17;;;1.13;;
5845;SDS011;2949;50.778;7.094;2023-04-03T14:18:45;1.23;;;0.70;;
5845;SDS011;2949;50.778;7.094;2023-04-03T14:21:13;6.07;;;1.00;;
5845;SDS011;2949;50.778;7.094;2023-04-03T14:23:40;2.97;;;0.63;;
5845;SDS011;2949;50.778;7.094;2023-04-03T14:26:10;0.80;;;0.80;;
5845;SDS011;2949;50.778;7.094;2023-04-03T14:28:38;1.07;;;0.60;;
5845;SDS011;2949;50.778;7.094;2023-04-03T14:31:05;1.07;;;0.60;;
5845;SDS011;2949;50.778;7.094;2023-04-03T14:33:31;1.57;;;0.90;;
5845;SDS011;2949;50.778;7.094;2023-04-03T14:35:59;1.73;;;0.70;;
5845;SDS011;2949;50.778;7.094;2023-04-03T14:38:28;3.20;;;0.97;;
5845;SDS011;2949;50.778;7.094;2023-04-03T14:40:55;4.17;;;1.33;;
5845;SDS011;2949;50.778;7.094;2023-04-03T14:43:22;2.50;;;0.87;;
5845;SDS011;2949;50.778;7.094;2023-04-03T14:45:49;2.87;;;1.07;;
5845;SDS011;2949;50.778;7.094;2023-04-03T14:48:17;2.00;;;0.87;;
5845;SDS011;2949;50.778;7.094;2023-04-03T14:50:45;1.53;;;1.00;;
5845;SDS011;2949;50.778;7.094;2023-04-03T14:53:11;2.80;;;0.97;;
5845;SDS011;2949;50.778;7.094;2023-04-03T14:55:39;2.00;;;1.10;;
5845;SDS011;2949;50.778;7.094;2023-04-03T14:58:14;2.20;;;0.80;;
5845;SDS011;2949;50.778;7.094;2023-04-03T15:00:44;2.87;;;0.57;;
5845;SDS011;2949;50.778;7.094;2023-04-03T15:03:14;2.13;;;1.03;;
5845;SDS011;2949;50.778;7.094;2023-04-03T15:05:46;2.70;;;1.00;;
5845;SDS011;2949;50.778;7.094;2023-04-03T15:08:20;1.60;;;0.63;;
5845;SDS011;2949;50.778;7.094;2023-04-03T15:10:49;1.50;;;0.70;;
5845;SDS011;2949;50.778;7.094;2023-04-03T15:13:15;2.10;;;0.90;;
5845;SDS011;2949;50.778;7.094;2023-04-03T15:15:41;1.83;;;0.97;;
5845;SDS011;2949;50.778;7.094;2023-04-03T15:18:06;3.47;;;1.03;;
5845;SDS011;2949;50.778;7.094;2023-04-03T15:20:40;4.30;;;0.97;;
5845;SDS011;2949;50.778;7.094;2023-04-03T15:23:05;3.87;;;0.80;;
5845;SDS011;2949;50.778;7.094;2023-04-03T15:25:31;2.40;;;1.13;;
5845;SDS011;2949;50.778;7.094;2023-04-03T15:27:57;0.80;;;0.80;;
5845;SDS011;2949;50.778;7.094;2023-04-03T15:30:23;1.47;;;0.90;;
5845;SDS011;2949;50.778;7.094;2023-04-03T15:32:49;3.20;;;1.10;;
5845;SDS011;2949;50.778;7.094;2023-04-03T15:35:15;2.70;;;1.00;;
5845;SDS011;2949;50.778;7.094;2023-04-03T15:37:41;2.93;;;1.10;;
5845;SDS011;2949;50.778;7.094;2023-04-03T15:40:07;0.70;;;0.70;;
5845;SDS011;2949;50.778;7.094;2023-04-03T15:42:33;2.10;;;1.17;;
5845;SDS011;2949;50.778;7.094;2023-04-03T15:44:58;5.43;;;1.37;;
5845;SDS011;2949;50.778;7.094;2023-04-03T15:47:24;2.53;;;0.77;;
5845;SDS011;2949;50.778;7.094;2023-04-03T15:49:51;0.87;;;0.87;;
5845;SDS011;2949;50.778;7.094;2023-04-03T15:52:17;1.43;;;0.90;;
5845;SDS011;2949;50.778;7.094;2023-04-03T15:54:42;1.47;;;0.80;;
5845;SDS011;2949;50.778;7.094;2023-04-03T15:57:08;0.97;;;0.97;;
5845;SDS011;2949;50.778;7.094;2023-04-03T15:59:33;2.13;;;1.17;;
5845;SDS011;2949;50.778;7.094;2023-04-03T16:01:59;4.43;;;1.00;;
5845;SDS011;2949;50.778;7.094;2023-04-03T16:04:27;3.03;;;1.07;;
5845;SDS011;2949;50.778;7.094;2023-04-03T16:06:53;1.40;;;1.30;;
5845;SDS011;2949;50.778;7.094;2023-04-03T16:09:18;3.30;;;1.50;;
5845;SDS011;2949;50.778;7.094;2023-04-03T16:11:44;2.10;;;1.03;;
5845;SDS011;2949;50.778;7.094;2023-04-03T16:14:10;1.50;;;0.70;;
5845;SDS011;2949;50.778;7.094;2023-04-03T16:16:35;2.20;;;1.10;;
5845;SDS011;2949;50.778;7.094;2023-04-03T16:19:02;4.07;;;1.00;;
5845;SDS011;2949;50.778;7.094;2023-04-03T16:21:28;2.63;;;1.10;;
5845;SDS011;2949;50.778;7.094;2023-04-03T16:23:56;2.87;;;1.03;;
5845;SDS011;2949;50.778;7.094;2023-04-03T16:26:22;2.60;;;0.73;;
5845;SDS011;2949;50.778;7.094;2023-04-03T16:28:48;5.73;;;1.27;;
5845;SDS011;2949;50.778;7.094;2023-04-03T16:31:13;2.20;;;1.30;;
5845;SDS011;2949;50.778;7.094;2023-04-03T16:33:39;2.30;;;0.70;;
5845;SDS011;2949;50.778;7.094;2023-04-03T16:36:05;0.87;;;0.87;;
5845;SDS011;2949;50.778;7.094;2023-04-03T16:38:31;1.53;;;0.67;;
5845;SDS011;2949;50.778;7.094;2023-04-03T16:40:57;0.60;;;0.60;;
5845;SDS011;2949;50.778;7.094;2023-04-03T16:43:24;3.10;;;0.80;;
5845;SDS011;2949;50.778;7.094;2023-04-03T16:45:50;2.70;;;0.90;;
5845;SDS011;2949;50.778;7.094;2023-04-03T16:48:16;1.60;;;0.80;;
5845;SDS011;2949;50.778;7.094;2023-04-03T16:50:42;0.97;;;0.97;;
5845;SDS011;2949;50.778;7.094;2023-04-03T16:53:12;3.40;;;0.80;;
5845;SDS011;2949;50.778;7.094;2023-04-03T16:55:38;5.70;;;0.90;;
5845;SDS011;2949;50.778;7.094;2023-04-03T16:58:05;6.20;;;0.90;;
5845;SDS011;2949;50.778;7.094;2023-04-03T17:00:30;1.73;;;1.00;;
5845;SDS011;2949;50.778;7.094;2023-04-03T17:02:56;1.30;;;0.80;;
5845;SDS011;2949;50.778;7.094;2023-04-03T17:05:22;4.70;;;0.90;;
5845;SDS011;2949;50.778;7.094;2023-04-03T17:07:49;1.07;;;0.97;;
5845;SDS011;2949;50.778;7.094;2023-04-03T17:10:15;2.27;;;1.17;;
5845;SDS011;2949;50.778;7.094;2023-04-03T17:12:40;1.30;;;0.67;;
5845;SDS011;2949;50.778;7.094;2023-04-03T17:15:06;6.33;;;1.27;;
5845;SDS011;2949;50.778;7.094;2023-04-03T17:17:32;1.53;;;0.77;;